createdAt,value
2023-02-15T00:00:32.337Z,101317.69
2023-02-15T00:03:01.061Z,101310.53
2023-02-15T00:05:30.325Z,101306.25
2023-02-15T00:07:58.692Z,101301.72
2023-02-15T00:10:27.315Z,101306.00
2023-02-15T00:12:55.659Z,101298.94
2023-02-15T00:15:25.310Z,101303.09
2023-02-15T00:17:55.430Z,101291.84
2023-02-15T00:20:24.135Z,101299.47
2023-02-15T00:22:52.532Z,101289.84
2023-02-15T00:25:20.883Z,101291.53
2023-02-15T00:27:50.686Z,101291.53
2023-02-15T00:30:19.514Z,101289.72
2023-02-15T00:32:49.821Z,101284.56
2023-02-15T00:35:19.971Z,101279.97
2023-02-15T00:37:48.653Z,101278.19
2023-02-15T00:40:17.138Z,101274.56
2023-02-15T00:42:45.713Z,101277.94
2023-02-15T00:45:15.597Z,101285.59
2023-02-15T00:47:45.463Z,101284.72
2023-02-15T00:50:13.915Z,101282.91
2023-02-15T00:52:43.821Z,101289.63
2023-02-15T00:55:12.239Z,101286.06
2023-02-15T00:57:40.617Z,101283.38
2023-02-15T01:00:10.575Z,101289.19
2023-02-15T01:02:39.083Z,101285.63
2023-02-15T01:05:08.187Z,101288.09
2023-02-15T01:07:36.945Z,101288.78
2023-02-15T01:10:08.865Z,101281.81
2023-02-15T01:12:37.399Z,101283.38
2023-02-15T01:15:06.454Z,101281.59
2023-02-15T01:17:35.150Z,101282.38
2023-02-15T01:20:07.723Z,101283.19
2023-02-15T01:22:36.143Z,101283.72
2023-02-15T01:25:06.676Z,101285.34
2023-02-15T01:27:35.055Z,101280.03
2023-02-15T01:30:05.511Z,101280.94
2023-02-15T01:32:34.108Z,101280.03
2023-02-15T01:35:02.721Z,101273.06
2023-02-15T01:37:33.227Z,101262.75
2023-02-15T01:40:02.122Z,101257.38
2023-02-15T01:42:33.939Z,101265.00
2023-02-15T01:45:04.622Z,101264.75
2023-02-15T01:47:38.728Z,101261.19
2023-02-15T01:50:14.687Z,101268.03
2023-02-15T01:52:48.920Z,101260.31
2023-02-15T01:55:17.945Z,101259.16
2023-02-15T01:57:48.794Z,101259.97
2023-02-15T02:00:28.808Z,101257.41
2023-02-15T02:02:59.338Z,101253.00
2023-02-15T02:05:28.508Z,101260.63
2023-02-15T02:08:00.973Z,101252.00
2023-02-15T02:10:30.192Z,101244.03
2023-02-15T02:13:03.729Z,101246.63
2023-02-15T02:15:48.756Z,101238.63
2023-02-15T02:18:34.654Z,101228.22
2023-02-15T02:21:38.708Z,101232.25
2023-02-15T02:24:42.609Z,101233.03
2023-02-15T02:27:32.189Z,101230.25
2023-02-15T02:30:39.460Z,101226.66
2023-02-15T02:33:23.218Z,101224.84
2023-02-15T02:36:10.957Z,101223.84
2023-02-15T02:38:55.333Z,101213.53
2023-02-15T02:41:34.233Z,101207.22
2023-02-15T02:44:12.251Z,101208.91
2023-02-15T02:47:00.442Z,101209.59
2023-02-15T02:49:38.930Z,101197.47
2023-02-15T02:52:37.236Z,101193.88
2023-02-15T02:55:09.484Z,101202.44
2023-02-15T02:57:51.726Z,101195.34
2023-02-15T03:00:23.342Z,101192.66
2023-02-15T03:02:59.288Z,101184.84
2023-02-15T03:05:31.938Z,101188.19
2023-02-15T03:08:06.911Z,101184.47
2023-02-15T03:10:37.835Z,101182.69
2023-02-15T03:13:07.444Z,101176.66
2023-02-15T03:15:57.979Z,101170.47
2023-02-15T03:18:32.802Z,101179.72
2023-02-15T03:21:05.473Z,101174.34
2023-02-15T03:23:36.191Z,101174.34
2023-02-15T03:26:08.613Z,101169.06
2023-02-15T03:28:44.529Z,101164.69
2023-02-15T03:31:16.458Z,101163.78
2023-02-15T03:33:57.684Z,101162.81
2023-02-15T03:36:35.372Z,101167.97
2023-02-15T03:39:17.879Z,101171.31
2023-02-15T03:41:55.044Z,101166.03
2023-02-15T03:44:30.148Z,101172.09
2023-02-15T03:47:06.374Z,101172.00
2023-02-15T03:49:43.217Z,101173.69
2023-02-15T03:52:14.328Z,101169.19
2023-02-15T03:54:49.557Z,101173.47
2023-02-15T03:57:41.842Z,101163.91
2023-02-15T04:00:38.098Z,101170.66
2023-02-15T04:03:19.339Z,101167.06
2023-02-15T04:05:47.878Z,101169.53
2023-02-15T04:08:17.837Z,101163.38
2023-02-15T04:10:54.605Z,101167.63
2023-02-15T04:13:23.989Z,101167.50
2023-02-15T04:16:07.685Z,101161.34
2023-02-15T04:18:58.286Z,101159.53
2023-02-15T04:21:47.412Z,101161.13
2023-02-15T04:24:35.316Z,101162.69
2023-02-15T04:27:05.267Z,101159.00
2023-02-15T04:29:34.233Z,101162.47
2023-02-15T04:32:04.054Z,101161.56
2023-02-15T04:34:32.612Z,101152.81
2023-02-15T04:37:01.262Z,101157.97
2023-02-15T04:39:31.029Z,101152.81
2023-02-15T04:42:02.234Z,101153.59
2023-02-15T04:44:30.638Z,101157.75
2023-02-15T04:46:59.021Z,101152.47
2023-02-15T04:49:27.600Z,101149.00
2023-02-15T04:51:55.934Z,101157.53
2023-02-15T04:54:24.656Z,101162.69
2023-02-15T04:56:54.357Z,101149.66
2023-02-15T04:59:22.783Z,101161.56
2023-02-15T05:01:51.244Z,101158.84
2023-02-15T05:04:20.001Z,101157.06
2023-02-15T05:06:48.397Z,101155.25
2023-02-15T05:09:17.415Z,101153.50
2023-02-15T05:11:45.840Z,101147.31
2023-02-15T05:14:16.057Z,101152.34
2023-02-15T05:16:44.527Z,101145.31
2023-02-15T05:19:12.990Z,101146.84
2023-02-15T05:21:41.393Z,101146.84
2023-02-15T05:24:23.808Z,101144.06
2023-02-15T05:27:10.116Z,101136.34
2023-02-15T05:29:40.601Z,101143.81
2023-02-15T05:32:09.156Z,101135.97
2023-02-15T05:34:37.913Z,101133.28
2023-02-15T05:37:06.272Z,101128.91
2023-02-15T05:39:34.805Z,101132.28
2023-02-15T05:42:03.548Z,101129.56
2023-02-15T05:44:32.027Z,101123.53
2023-02-15T05:47:03.865Z,101124.34
2023-02-15T05:49:32.417Z,101124.34
2023-02-15T05:52:00.840Z,101115.56
2023-02-15T05:54:29.911Z,101120.72
2023-02-15T05:56:58.510Z,101118.81
2023-02-15T05:59:27.122Z,101118.72
2023-02-15T06:01:55.473Z,101119.50
2023-02-15T06:04:25.287Z,101114.34
2023-02-15T06:06:53.796Z,101118.47
2023-02-15T06:09:22.412Z,101115.00
2023-02-15T06:11:50.875Z,101114.88
2023-02-15T06:14:19.561Z,101103.56
2023-02-15T06:16:47.936Z,101108.59
2023-02-15T06:19:16.726Z,101114.53
2023-02-15T06:21:46.973Z,101118.78
2023-02-15T06:24:15.490Z,101123.03
2023-02-15T06:26:43.939Z,101123.84
2023-02-15T06:29:12.351Z,101124.75
2023-02-15T06:31:40.764Z,101125.53
2023-02-15T06:34:10.057Z,101123.72
2023-02-15T06:36:38.713Z,101121.16
2023-02-15T06:39:08.747Z,101113.28
2023-02-15T06:41:37.301Z,101127.84
2023-02-15T06:44:06.391Z,101124.28
2023-02-15T06:46:34.994Z,101125.06
2023-02-15T06:49:03.564Z,101122.47
2023-02-15T06:51:32.029Z,101121.44
2023-02-15T06:54:00.464Z,101117.09
2023-02-15T06:56:30.572Z,101134.34
2023-02-15T06:58:59.487Z,101122.13
2023-02-15T07:01:28.191Z,101125.38
2023-02-15T07:03:56.521Z,101120.22
2023-02-15T07:06:24.895Z,101124.47
2023-02-15T07:08:53.491Z,101122.66
2023-02-15T07:11:39.448Z,101121.75
2023-02-15T07:14:09.484Z,101124.25
2023-02-15T07:16:38.000Z,101128.50
2023-02-15T07:19:08.098Z,101122.44
2023-02-15T07:21:36.999Z,101116.41
2023-02-15T07:24:06.309Z,101118.19
2023-02-15T07:26:35.114Z,101112.16
2023-02-15T07:29:03.506Z,101116.41
2023-02-15T07:31:33.585Z,101113.81
2023-02-15T07:34:02.167Z,101117.28
2023-02-15T07:36:30.554Z,101111.25
2023-02-15T07:38:58.968Z,101108.66
2023-02-15T07:41:27.368Z,101111.38
2023-02-15T07:43:55.820Z,101106.31
2023-02-15T07:46:24.356Z,101099.41
2023-02-15T07:48:54.387Z,101104.53
2023-02-15T07:51:22.785Z,101094.25
2023-02-15T07:53:52.480Z,101100.25
2023-02-15T07:56:20.899Z,101089.09
2023-02-15T07:58:56.797Z,101077.97
2023-02-15T08:01:27.968Z,101079.78
2023-02-15T08:04:01.247Z,101084.16
2023-02-15T08:06:32.173Z,101081.72
2023-02-15T08:09:01.762Z,101080.13
2023-02-15T08:11:37.418Z,101072.53
2023-02-15T08:14:09.500Z,101074.31
2023-02-15T08:16:40.247Z,101062.47
2023-02-15T08:19:13.664Z,101064.22
2023-02-15T08:21:44.997Z,101062.69
2023-02-15T08:24:15.220Z,101056.75
2023-02-15T08:26:45.913Z,101062.94
2023-02-15T08:29:15.113Z,101060.44
2023-02-15T08:31:43.790Z,101058.19
2023-02-15T08:34:18.489Z,101056.63
2023-02-15T08:36:47.328Z,101059.34
2023-02-15T08:39:17.359Z,101056.88
2023-02-15T08:41:48.888Z,101060.44
2023-02-15T08:44:21.405Z,101064.94
2023-02-15T08:46:51.564Z,101052.19
2023-02-15T08:49:23.591Z,101057.53
2023-02-15T08:51:52.434Z,101049.94
2023-02-15T08:54:23.427Z,101049.25
2023-02-15T08:56:51.946Z,101038.28
2023-02-15T08:59:23.114Z,101036.16
2023-02-15T09:01:53.860Z,101040.72
2023-02-15T09:04:24.355Z,101036.69
2023-02-15T09:06:53.193Z,101037.81
2023-02-15T09:09:22.323Z,101033.00
2023-02-15T09:11:58.832Z,101032.53
2023-02-15T09:14:29.013Z,101025.03
2023-02-15T09:16:57.598Z,101022.78
2023-02-15T09:19:27.659Z,101028.38
2023-02-15T09:21:56.245Z,101017.50
2023-02-15T09:24:24.951Z,101018.72
2023-02-15T09:26:53.501Z,101014.78
2023-02-15T09:29:23.617Z,101019.34
2023-02-15T09:31:54.834Z,101018.03
2023-02-15T09:34:25.939Z,101020.06
2023-02-15T09:36:54.458Z,101006.44
2023-02-15T09:39:25.646Z,101014.63
2023-02-15T09:42:44.594Z,101011.50
2023-02-15T09:45:27.986Z,101016.19
2023-02-15T09:48:41.949Z,101020.75
2023-02-15T09:51:43.846Z,101020.41
2023-02-15T09:54:35.898Z,101026.78
2023-02-15T09:57:12.241Z,101022.94
2023-02-15T09:59:54.671Z,101010.44
2023-02-15T10:02:39.483Z,101013.44
2023-02-15T10:05:23.115Z,101012.16
2023-02-15T10:08:18.203Z,101009.91
2023-02-15T10:11:19.982Z,101006.03
2023-02-15T10:14:04.009Z,101011.59
2023-02-15T10:16:44.539Z,101024.03
2023-02-15T10:19:24.458Z,101021.88
2023-02-15T10:22:08.674Z,101022.28
2023-02-15T10:24:57.866Z,101021.78
2023-02-15T10:27:26.473Z,101017.94
2023-02-15T10:30:05.896Z,101014.09
2023-02-15T10:32:42.801Z,101004.97
2023-02-15T10:35:22.480Z,101009.53
2023-02-15T10:38:08.160Z,100997.78
2023-02-15T10:40:48.922Z,101006.78
2023-02-15T10:43:34.283Z,101002.00
2023-02-15T10:46:16.179Z,101001.41
2023-02-15T10:49:12.706Z,100999.22
2023-02-15T10:51:55.664Z,100996.19
2023-02-15T10:54:34.615Z,101002.66
2023-02-15T10:57:11.846Z,100996.97
2023-02-15T11:00:07.705Z,101006.16
2023-02-15T11:02:55.036Z,100994.38
2023-02-15T11:05:44.377Z,100993.88
2023-02-15T11:08:14.287Z,100991.56
2023-02-15T11:10:48.923Z,100995.44
2023-02-15T11:13:21.210Z,100996.72
2023-02-15T11:15:56.153Z,100990.94
2023-02-15T11:18:30.283Z,100993.91
2023-02-15T11:21:04.121Z,100987.31
2023-02-15T11:23:36.162Z,100986.84
2023-02-15T11:26:11.761Z,100976.78
2023-02-15T11:28:45.523Z,100967.59
2023-02-15T11:31:19.037Z,100973.94
2023-02-15T11:33:53.961Z,100967.34
2023-02-15T11:36:27.276Z,100963.44
2023-02-15T11:39:02.987Z,100967.19
2023-02-15T11:41:38.434Z,100958.09
2023-02-15T11:44:17.283Z,100946.31
2023-02-15T11:46:45.962Z,100953.44
2023-02-15T11:49:25.710Z,100953.81
2023-02-15T11:51:55.889Z,100957.56
2023-02-15T11:54:30.532Z,100957.94
2023-02-15T11:57:05.186Z,100952.22
2023-02-15T11:59:38.678Z,100951.78
2023-02-15T12:02:19.269Z,100939.88
2023-02-15T12:04:54.949Z,100938.44
2023-02-15T12:07:28.457Z,100938.63
2023-02-15T12:10:08.046Z,100937.19
2023-02-15T12:12:38.220Z,100934.97
2023-02-15T12:15:12.023Z,100938.72
2023-02-15T12:17:43.973Z,100939.78
2023-02-15T12:20:27.897Z,100935.75
2023-02-15T12:23:03.248Z,100937.72
2023-02-15T12:25:38.553Z,100925.00
2023-02-15T12:28:26.127Z,100928.59
2023-02-15T12:30:57.674Z,100926.97
2023-02-15T12:33:32.610Z,100919.44
2023-02-15T12:36:08.406Z,100907.53
2023-02-15T12:38:36.836Z,100908.50
2023-02-15T12:41:13.030Z,100907.88
2023-02-15T12:43:41.410Z,100915.81
2023-02-15T12:46:25.389Z,100901.25
2023-02-15T12:49:21.184Z,100891.00
2023-02-15T12:51:52.834Z,100889.50
2023-02-15T12:54:35.322Z,100894.03
2023-02-15T12:57:23.872Z,100890.69
2023-02-15T12:59:55.453Z,100884.06
2023-02-15T13:02:30.134Z,100885.13
2023-02-15T13:05:07.248Z,100876.69
2023-02-15T13:07:36.427Z,100882.94
2023-02-15T13:10:05.831Z,100876.28
2023-02-15T13:12:35.160Z,100865.25
2023-02-15T13:15:05.875Z,100864.59
2023-02-15T13:17:36.106Z,100868.34
2023-02-15T13:20:10.553Z,100868.53
2023-02-15T13:22:44.788Z,100865.28
2023-02-15T13:25:20.393Z,100863.81
2023-02-15T13:27:55.252Z,100859.75
2023-02-15T13:30:32.109Z,100863.41
2023-02-15T13:33:06.466Z,100858.44
2023-02-15T13:35:43.214Z,100859.56
2023-02-15T13:38:46.586Z,100857.94
2023-02-15T13:41:18.721Z,100849.34
2023-02-15T13:44:01.324Z,100846.91
2023-02-15T13:46:55.654Z,100844.47
2023-02-15T13:49:42.107Z,100842.09
2023-02-15T13:52:21.270Z,100830.06
2023-02-15T13:55:11.182Z,100827.72
2023-02-15T13:58:00.718Z,100826.16
2023-02-15T14:00:38.516Z,100825.47
2023-02-15T14:03:41.342Z,100817.91
2023-02-15T14:06:32.665Z,100826.00
2023-02-15T14:09:14.290Z,100823.56
2023-02-15T14:11:53.977Z,100822.09
2023-02-15T14:15:01.009Z,100822.97
2023-02-15T14:17:46.253Z,100815.31
2023-02-15T14:20:25.164Z,100819.78
2023-02-15T14:23:04.872Z,100815.47
2023-02-15T14:25:41.481Z,100822.50
2023-02-15T14:28:15.573Z,100806.91
2023-02-15T14:30:47.356Z,100812.13
2023-02-15T14:33:35.631Z,100804.31
2023-02-15T14:36:07.714Z,100801.72
2023-02-15T14:38:56.847Z,100804.31
2023-02-15T14:41:34.022Z,100806.03
2023-02-15T14:44:11.643Z,100799.97
2023-02-15T14:46:48.351Z,100812.97
2023-02-15T14:49:21.642Z,100814.66
2023-02-15T14:51:59.844Z,100819.69
2023-02-15T14:55:06.433Z,100813.53
2023-02-15T14:57:37.314Z,100816.97
2023-02-15T15:00:34.909Z,100806.47
2023-02-15T15:03:03.702Z,100806.31
2023-02-15T15:05:36.895Z,100812.41
2023-02-15T15:08:07.391Z,100808.88
2023-02-15T15:10:42.535Z,100813.16
2023-02-15T15:13:38.990Z,100804.41
2023-02-15T15:16:30.765Z,100799.06
2023-02-15T15:19:00.722Z,100793.78
2023-02-15T15:21:57.764Z,100780.66
2023-02-15T15:24:53.735Z,100786.56
2023-02-15T15:27:46.004Z,100792.44
2023-02-15T15:31:01.682Z,100788.78
2023-02-15T15:34:21.072Z,100783.47
2023-02-15T15:37:45.336Z,100786.78
2023-02-15T15:40:43.910Z,100794.53
2023-02-15T15:44:03.913Z,100797.03
2023-02-15T15:47:15.750Z,100789.16
2023-02-15T15:49:44.278Z,100799.53
2023-02-15T15:52:17.780Z,100794.25
2023-02-15T15:54:49.240Z,100798.66
2023-02-15T15:57:24.416Z,100790.84
2023-02-15T15:59:55.760Z,100785.66
2023-02-15T16:02:24.666Z,100793.31
2023-02-15T16:04:53.092Z,100786.34
2023-02-15T16:07:27.932Z,100791.53
2023-02-15T16:09:58.548Z,100793.97
2023-02-15T16:12:29.383Z,100790.41
2023-02-15T16:15:00.257Z,100786.03
2023-02-15T16:17:32.672Z,100797.22
2023-02-15T16:20:09.896Z,100795.38
2023-02-15T16:22:40.321Z,100793.50
2023-02-15T16:25:39.042Z,100788.97
2023-02-15T16:28:13.422Z,100795.00
2023-02-15T16:30:45.375Z,100786.97
2023-02-15T16:33:16.761Z,100791.28
2023-02-15T16:35:57.194Z,100787.69
2023-02-15T16:39:08.345Z,100790.06
2023-02-15T16:41:38.658Z,100789.03
2023-02-15T16:44:15.141Z,100799.41
2023-02-15T16:46:50.096Z,100800.13
2023-02-15T16:49:22.437Z,100798.34
2023-02-15T16:51:59.639Z,100799.91
2023-02-15T16:54:30.094Z,100793.59
2023-02-15T16:56:58.898Z,100803.03
2023-02-15T16:59:37.446Z,100799.47
2023-02-15T17:02:14.502Z,100791.53
2023-02-15T17:04:46.976Z,100799.94
2023-02-15T17:07:20.981Z,100800.78
2023-02-15T17:09:55.023Z,100796.31
2023-02-15T17:12:48.360Z,100806.56
2023-02-15T17:15:33.828Z,100801.19
2023-02-15T17:18:08.870Z,100794.06
2023-02-15T17:20:40.291Z,100806.03
2023-02-15T17:23:09.021Z,100803.31
2023-02-15T17:25:43.234Z,100797.22
2023-02-15T17:28:20.619Z,100798.91
2023-02-15T17:30:50.226Z,100792.75
2023-02-15T17:33:29.829Z,100791.94
2023-02-15T17:36:09.750Z,100804.78
2023-02-15T17:38:39.008Z,100793.41
2023-02-15T17:41:07.548Z,100804.50
2023-02-15T17:43:35.944Z,100794.88
2023-02-15T17:46:04.538Z,100805.25
2023-02-15T17:48:37.824Z,100801.75
2023-02-15T17:51:13.415Z,100805.97
2023-02-15T17:54:02.152Z,100811.09
2023-02-15T17:56:29.824Z,100799.53
2023-02-15T17:58:58.317Z,100801.25
2023-02-15T18:01:44.296Z,100819.34
2023-02-15T18:04:33.916Z,100819.16
2023-02-15T18:07:20.057Z,100826.59
2023-02-15T18:10:06.374Z,100823.88
2023-02-15T18:12:38.563Z,100827.91
2023-02-15T18:15:11.447Z,100832.91
2023-02-15T18:17:44.926Z,100835.50
2023-02-15T18:20:22.211Z,100831.97
2023-02-15T18:22:51.605Z,100837.94
2023-02-15T18:25:23.560Z,100831.88
2023-02-15T18:27:54.572Z,100837.75
2023-02-15T18:30:26.535Z,100852.38
2023-02-15T18:32:57.840Z,100854.94
2023-02-15T18:35:32.135Z,100843.50
2023-02-15T18:38:02.154Z,100851.22
2023-02-15T18:40:31.514Z,100846.75
2023-02-15T18:43:00.099Z,100853.44
2023-02-15T18:45:32.917Z,100851.72
2023-02-15T18:48:01.821Z,100856.81
2023-02-15T18:50:35.937Z,100856.03
2023-02-15T18:53:06.028Z,100845.47
2023-02-15T18:55:35.367Z,100844.56
2023-02-15T18:58:04.225Z,100851.44
2023-02-15T19:00:35.263Z,100847.97
2023-02-15T19:03:04.631Z,100843.50
2023-02-15T19:05:35.453Z,100846.00
2023-02-15T19:08:04.511Z,100852.09
2023-02-15T19:10:34.963Z,100845.91
2023-02-15T19:13:03.386Z,100844.97
2023-02-15T19:15:32.230Z,100846.56
2023-02-15T19:18:00.957Z,100851.59
2023-02-15T19:20:34.394Z,100856.69
2023-02-15T19:23:04.272Z,100853.84
2023-02-15T19:25:37.567Z,100848.56
2023-02-15T19:28:13.499Z,100857.13
2023-02-15T19:30:41.874Z,100857.88
2023-02-15T19:33:18.845Z,100850.09
2023-02-15T19:35:52.465Z,100854.28
2023-02-15T19:38:25.389Z,100847.31
2023-02-15T19:40:54.126Z,100846.25
2023-02-15T19:43:26.316Z,100841.06
2023-02-15T19:45:55.220Z,100843.47
2023-02-15T19:48:23.670Z,100841.72
2023-02-15T19:50:55.375Z,100845.00
2023-02-15T19:53:26.161Z,100841.41
2023-02-15T19:55:55.424Z,100838.78
2023-02-15T19:58:24.331Z,100846.44
2023-02-15T20:00:53.425Z,100848.94
2023-02-15T20:03:22.118Z,100853.22
2023-02-15T20:05:52.000Z,100860.03
2023-02-15T20:08:23.553Z,100865.22
2023-02-15T20:10:52.223Z,100865.13
2023-02-15T20:13:22.070Z,100865.91
2023-02-15T20:15:53.098Z,100865.91
2023-02-15T20:18:22.675Z,100863.22
2023-02-15T20:20:54.862Z,100873.59
2023-02-15T20:23:27.442Z,100873.53
2023-02-15T20:26:00.506Z,100862.16
2023-02-15T20:28:32.066Z,100861.28
2023-02-15T20:31:00.872Z,100859.47
2023-02-15T20:33:29.677Z,100856.78
2023-02-15T20:36:00.767Z,100861.97
2023-02-15T20:38:32.215Z,100854.13
2023-02-15T20:41:20.159Z,100867.00
2023-02-15T20:43:48.685Z,100865.94
2023-02-15T20:46:17.114Z,100859.75
2023-02-15T20:48:45.528Z,100863.94
2023-02-15T20:51:19.111Z,100868.22
2023-02-15T20:53:48.519Z,100873.34
2023-02-15T20:56:20.638Z,100862.06
2023-02-15T20:58:49.240Z,100867.84
2023-02-15T21:01:19.780Z,100862.69
2023-02-15T21:03:48.997Z,100868.59
2023-02-15T21:06:19.356Z,100870.28
2023-02-15T21:08:47.971Z,100870.19
2023-02-15T21:11:21.853Z,100873.56
2023-02-15T21:13:51.626Z,100871.81
2023-02-15T21:16:20.153Z,100871.59
2023-02-15T21:18:48.682Z,100881.06
2023-02-15T21:21:24.629Z,100883.59
2023-02-15T21:23:54.282Z,100880.78
2023-02-15T21:26:24.064Z,100885.19
2023-02-15T21:28:52.624Z,100885.88
2023-02-15T21:31:24.476Z,100884.19
2023-02-15T21:33:53.397Z,100896.97
2023-02-15T21:36:26.970Z,100885.59
2023-02-15T21:38:55.548Z,100891.53
2023-02-15T21:41:44.126Z,100893.16
2023-02-15T21:44:35.294Z,100896.34
2023-02-15T21:47:21.490Z,100885.81
2023-02-15T21:49:49.985Z,100890.00
2023-02-15T21:52:22.988Z,100891.63
2023-02-15T21:54:51.364Z,100888.03
2023-02-15T21:57:22.143Z,100887.25
2023-02-15T21:59:50.807Z,100889.63
2023-02-15T22:02:31.790Z,100887.84
2023-02-15T22:05:00.616Z,100885.97
2023-02-15T22:07:30.387Z,100882.59
2023-02-15T22:09:59.018Z,100883.28
2023-02-15T22:12:27.391Z,100878.00
2023-02-15T22:14:55.971Z,100877.94
2023-02-15T22:17:28.976Z,100879.53
2023-02-15T22:19:58.893Z,100881.22
2023-02-15T22:22:30.799Z,100886.28
2023-02-15T22:24:59.291Z,100887.91
2023-02-15T22:27:31.530Z,100872.19
2023-02-15T22:30:00.238Z,100878.97
2023-02-15T22:32:28.823Z,100880.56
2023-02-15T22:34:57.707Z,100877.88
2023-02-15T22:37:26.216Z,100887.25
2023-02-15T22:39:56.469Z,100888.16
2023-02-15T22:42:28.029Z,100881.97
2023-02-15T22:44:58.526Z,100881.88
2023-02-15T22:47:29.451Z,100883.56
2023-02-15T22:49:57.836Z,100882.66
2023-02-15T22:52:26.408Z,100902.47
2023-02-15T22:54:56.216Z,100898.19
2023-02-15T22:57:30.553Z,100881.78
2023-02-15T23:00:00.607Z,100892.94
2023-02-15T23:02:29.233Z,100890.25
2023-02-15T23:04:57.617Z,100892.84
2023-02-15T23:07:26.257Z,100879.81
2023-02-15T23:09:56.083Z,100870.97
2023-02-15T23:12:28.455Z,100874.47
2023-02-15T23:14:57.806Z,100883.81
2023-02-15T23:17:26.407Z,100876.84
2023-02-15T23:19:54.857Z,100881.94
2023-02-15T23:22:23.437Z,100879.25
2023-02-15T23:24:55.753Z,100875.75
2023-02-15T23:27:41.811Z,100876.44
2023-02-15T23:30:15.594Z,100878.06
2023-02-15T23:32:44.288Z,100874.47
2023-02-15T23:35:16.486Z,100875.28
2023-02-15T23:37:45.321Z,100868.31
2023-02-15T23:40:35.244Z,100869.13
2023-02-15T23:43:03.954Z,100867.25
2023-02-15T23:45:37.248Z,100869.72
2023-02-15T23:48:32.987Z,100873.09
2023-02-15T23:51:02.436Z,100881.47
2023-02-15T23:53:31.721Z,100875.34
2023-02-15T23:56:01.854Z,100871.75
2023-02-15T23:58:37.911Z,100872.53
